createdAt,value
2019-04-06T00:02:19.333Z,8.50
2019-04-06T00:04:48.092Z,8.50
2019-04-06T00:07:16.990Z,8.50
2019-04-06T00:09:45.767Z,8.60
2019-04-06T00:12:14.586Z,8.60
2019-04-06T00:14:43.400Z,8.60
2019-04-06T00:17:12.161Z,8.60
2019-04-06T00:19:40.898Z,8.60
2019-04-06T00:22:09.741Z,8.70
2019-04-06T00:24:38.503Z,8.60
2019-04-06T00:27:07.274Z,8.60
2019-04-06T00:29:36.031Z,8.70
2019-04-06T00:32:16.890Z,8.60
2019-04-06T00:34:45.634Z,8.50
2019-04-06T00:37:14.386Z,8.50
2019-04-06T00:39:43.134Z,8.60
2019-04-06T00:42:11.898Z,8.60
2019-04-06T00:44:40.650Z,8.60
2019-04-06T00:47:09.480Z,8.60
2019-04-06T00:49:38.296Z,8.60
2019-04-06T00:52:08.363Z,8.60
2019-04-06T00:54:37.108Z,8.60
2019-04-06T00:57:05.873Z,8.60
2019-04-06T00:59:34.642Z,8.60
2019-04-06T01:02:04.268Z,8.60
2019-04-06T01:04:33.045Z,8.60
2019-04-06T01:07:02.078Z,8.60
2019-04-06T01:09:31.085Z,8.60
2019-04-06T01:12:00.062Z,8.50
2019-04-06T01:14:29.226Z,8.50
2019-04-06T01:16:57.987Z,8.60
2019-04-06T01:19:26.732Z,8.60
2019-04-06T01:21:55.558Z,8.50
2019-04-06T01:24:24.305Z,8.50
2019-04-06T01:26:53.051Z,8.40
2019-04-06T01:29:21.960Z,8.40
2019-04-06T01:31:50.701Z,8.40
2019-04-06T01:34:19.460Z,8.40
2019-04-06T01:36:48.210Z,8.40
2019-04-06T01:39:16.986Z,8.40
2019-04-06T01:41:45.730Z,8.40
2019-04-06T01:44:14.645Z,8.40
2019-04-06T01:46:43.435Z,8.40
2019-04-06T01:49:12.184Z,8.40
2019-04-06T01:51:40.939Z,8.40
2019-04-06T01:54:09.698Z,8.30
2019-04-06T01:56:38.458Z,8.30
2019-04-06T01:59:07.229Z,8.30
2019-04-06T02:01:43.135Z,8.20
2019-04-06T02:04:11.903Z,8.20
2019-04-06T02:06:40.723Z,8.10
2019-04-06T02:09:09.511Z,8.00
2019-04-06T02:11:38.417Z,8.00
2019-04-06T02:14:07.193Z,8.00
2019-04-06T02:16:35.958Z,7.90
2019-04-06T02:19:04.807Z,7.90
2019-04-06T02:21:33.553Z,7.80
2019-04-06T02:24:02.318Z,7.80
2019-04-06T02:26:31.313Z,7.80
2019-04-06T02:29:00.294Z,7.70
2019-04-06T02:31:47.139Z,7.70
2019-04-06T02:34:37.765Z,7.70
2019-04-06T02:37:15.453Z,7.70
2019-04-06T02:40:12.197Z,7.60
2019-04-06T02:42:46.110Z,7.60
2019-04-06T02:45:14.965Z,7.60
2019-04-06T02:47:44.203Z,7.60
2019-04-06T02:50:13.334Z,7.70
2019-04-06T02:52:42.141Z,7.70
2019-04-06T02:55:11.319Z,7.60
2019-04-06T02:57:40.070Z,7.60
2019-04-06T03:00:10.171Z,7.70
2019-04-06T03:02:39.019Z,7.70
2019-04-06T03:05:08.604Z,7.70
2019-04-06T03:07:37.659Z,7.70
2019-04-06T03:10:06.891Z,7.50
2019-04-06T03:12:35.951Z,7.50
2019-04-06T03:15:05.772Z,7.50
2019-04-06T03:17:34.579Z,7.40
2019-04-06T03:20:03.562Z,7.40
2019-04-06T03:22:32.321Z,7.40
2019-04-06T03:25:01.282Z,7.50
2019-04-06T03:27:30.219Z,7.40
2019-04-06T03:30:00.443Z,7.50
2019-04-06T03:32:29.215Z,7.50
2019-04-06T03:34:58.004Z,7.50
2019-04-06T03:37:26.819Z,7.40
2019-04-06T03:39:55.751Z,7.50
2019-04-06T03:42:24.605Z,7.60
2019-04-06T03:44:53.358Z,7.50
2019-04-06T03:47:22.145Z,7.50
2019-04-06T03:49:50.961Z,7.40
2019-04-06T03:52:19.727Z,7.50
2019-04-06T03:54:48.469Z,7.40
2019-04-06T03:57:17.307Z,7.50
2019-04-06T03:59:46.102Z,7.60
2019-04-06T04:02:14.902Z,7.50
2019-04-06T04:04:44.434Z,7.50
2019-04-06T04:07:13.187Z,7.60
2019-04-06T04:09:41.960Z,7.60
2019-04-06T04:12:10.736Z,7.60
2019-04-06T04:14:39.496Z,7.60
2019-04-06T04:17:08.384Z,7.60
2019-04-06T04:19:37.274Z,7.60
2019-04-06T04:22:06.140Z,7.60
2019-04-06T04:24:34.984Z,7.60
2019-04-06T04:27:04.445Z,7.60
2019-04-06T04:29:33.198Z,7.60
2019-04-06T04:32:01.956Z,7.60
2019-04-06T04:34:30.748Z,7.60
2019-04-06T04:36:59.764Z,7.60
2019-04-06T04:39:28.589Z,7.60
2019-04-06T04:41:57.342Z,7.60
2019-04-06T04:44:26.196Z,7.60
2019-04-06T04:46:56.371Z,7.60
2019-04-06T04:49:25.160Z,7.60
2019-04-06T04:51:53.926Z,7.70
2019-04-06T04:54:22.680Z,7.60
2019-04-06T04:56:51.624Z,7.60
2019-04-06T04:59:20.454Z,7.70
2019-04-06T05:01:49.320Z,7.70
2019-04-06T05:04:18.402Z,7.80
2019-04-06T05:06:47.516Z,7.70
2019-04-06T05:09:16.547Z,7.70
2019-04-06T05:11:45.293Z,7.80
2019-04-06T05:14:49.953Z,7.80
2019-04-06T05:17:18.952Z,7.80
2019-04-06T05:19:47.716Z,7.80
2019-04-06T05:22:16.461Z,7.90
2019-04-06T05:24:45.232Z,7.80
2019-04-06T05:27:13.988Z,7.80
2019-04-06T05:29:42.745Z,7.80
2019-04-06T05:32:11.553Z,7.80
2019-04-06T05:34:40.425Z,7.90
2019-04-06T05:37:09.282Z,8.00
2019-04-06T05:39:38.159Z,8.00
2019-04-06T05:42:07.262Z,7.90
2019-04-06T05:44:36.046Z,7.90
2019-04-06T05:47:04.971Z,7.90
2019-04-06T05:49:33.850Z,7.80
2019-04-06T05:52:02.844Z,7.80
2019-04-06T05:54:31.836Z,7.90
2019-04-06T05:57:00.598Z,7.90
2019-04-06T05:59:29.323Z,7.90
2019-04-06T06:01:58.130Z,8.10
2019-04-06T06:04:27.055Z,8.10
2019-04-06T06:06:55.918Z,8.20
2019-04-06T06:09:24.691Z,8.40
2019-04-06T06:11:55.898Z,8.40
2019-04-06T06:14:24.869Z,8.50
2019-04-06T06:16:53.665Z,8.50
2019-04-06T06:19:22.869Z,8.60
2019-04-06T06:21:51.859Z,8.80
2019-04-06T06:24:20.597Z,8.80
2019-04-06T06:26:50.244Z,8.90
2019-04-06T06:29:19.006Z,9.00
2019-04-06T06:31:47.874Z,9.20
2019-04-06T06:34:16.645Z,9.50
2019-04-06T06:36:45.410Z,9.70
2019-04-06T06:39:14.165Z,9.80
2019-04-06T06:41:43.191Z,9.80
2019-04-06T06:44:12.114Z,9.70
2019-04-06T06:46:40.876Z,9.60
2019-04-06T06:49:09.628Z,9.60
2019-04-06T06:51:38.390Z,9.50
2019-04-06T06:54:07.529Z,9.40
2019-04-06T06:56:36.620Z,9.50
2019-04-06T06:59:05.529Z,9.40
2019-04-06T07:01:34.273Z,9.70
2019-04-06T07:04:03.020Z,9.80
2019-04-06T07:06:31.778Z,9.80
2019-04-06T07:09:00.534Z,10.10
2019-04-06T07:11:29.363Z,10.20
2019-04-06T07:13:58.139Z,10.10
2019-04-06T07:16:27.500Z,10.10
2019-04-06T07:18:56.244Z,10.20
2019-04-06T07:21:25.002Z,10.20
2019-04-06T07:23:53.741Z,10.40
2019-04-06T07:26:22.505Z,10.50
2019-04-06T07:28:51.493Z,11.30
2019-04-06T07:31:20.378Z,12.10
2019-04-06T07:33:49.149Z,12.20
2019-04-06T07:36:17.974Z,12.30
2019-04-06T07:38:46.745Z,13.20
2019-04-06T07:41:15.519Z,13.90
2019-04-06T07:43:44.288Z,14.40
2019-04-06T07:46:13.061Z,14.30
2019-04-06T07:48:41.856Z,14.40
2019-04-06T07:51:10.611Z,14.80
2019-04-06T07:53:39.503Z,15.10
2019-04-06T07:56:08.322Z,14.90
2019-04-06T07:58:48.039Z,15.20
2019-04-06T08:01:07.734Z,15.40
2019-04-06T08:03:36.494Z,15.30
2019-04-06T08:06:06.593Z,15.80
2019-04-06T08:08:35.491Z,16.10
2019-04-06T08:11:04.407Z,15.60
2019-04-06T08:13:33.343Z,15.20
2019-04-06T08:16:02.179Z,15.40
2019-04-06T08:18:30.931Z,15.80
2019-04-06T08:20:59.703Z,16.50
2019-04-06T08:23:28.670Z,16.40
2019-04-06T08:25:57.600Z,16.30
2019-04-06T08:28:26.369Z,16.10
2019-04-06T08:30:55.127Z,16.60
2019-04-06T08:33:24.502Z,17.00
2019-04-06T08:35:53.260Z,17.60
2019-04-06T08:38:22.051Z,17.50
2019-04-06T08:40:50.821Z,17.70
2019-04-06T08:43:19.594Z,18.40
2019-04-06T08:45:48.354Z,18.70
2019-04-06T08:48:17.102Z,18.50
2019-04-06T08:50:46.355Z,18.60
2019-04-06T08:53:15.257Z,18.00
2019-04-06T08:55:44.576Z,17.70
2019-04-06T08:58:13.546Z,17.90
2019-04-06T09:00:42.436Z,17.50
2019-04-06T09:03:11.353Z,18.30
2019-04-06T09:05:40.142Z,18.40
2019-04-06T09:08:08.991Z,19.10
2019-04-06T09:10:37.834Z,19.40
2019-04-06T09:13:06.724Z,19.60
2019-04-06T09:15:35.688Z,20.20
2019-04-06T09:18:04.515Z,20.10
2019-04-06T09:20:33.274Z,19.20
2019-04-06T09:23:02.108Z,20.50
2019-04-06T09:25:30.949Z,20.80
2019-04-06T09:27:59.786Z,20.60
2019-04-06T09:30:29.020Z,21.00
2019-04-06T09:32:57.818Z,20.80
2019-04-06T09:35:26.615Z,20.50
2019-04-06T09:37:55.489Z,20.50
2019-04-06T09:40:24.703Z,21.50
2019-04-06T09:42:53.714Z,21.80
2019-04-06T09:45:34.476Z,23.20
2019-04-06T09:48:12.842Z,22.30
2019-04-06T09:51:09.432Z,22.70
2019-04-06T09:54:05.522Z,22.30
2019-04-06T09:56:39.358Z,21.40
2019-04-06T09:59:40.524Z,19.80
2019-04-06T10:02:28.435Z,22.30
2019-04-06T10:05:08.881Z,22.10
2019-04-06T10:07:56.756Z,22.30
2019-04-06T10:10:53.981Z,23.70
2019-04-06T10:13:34.325Z,22.90
2019-04-06T10:16:18.109Z,23.20
2019-04-06T10:18:56.579Z,23.40
2019-04-06T10:21:49.728Z,23.10
2019-04-06T10:24:37.912Z,23.30
2019-04-06T10:27:38.094Z,21.60
2019-04-06T10:30:26.866Z,22.10
2019-04-06T10:33:27.619Z,22.30
2019-04-06T10:36:25.658Z,21.80
2019-04-06T10:39:17.124Z,21.70
2019-04-06T10:42:11.771Z,22.10
2019-04-06T10:44:50.097Z,21.50
2019-04-06T10:47:48.039Z,21.00
2019-04-06T10:50:14.903Z,22.40
2019-04-06T10:52:52.542Z,20.70
2019-04-06T10:55:40.880Z,21.00
2019-04-06T10:58:39.940Z,21.00
2019-04-06T11:01:43.401Z,20.60
2019-04-06T11:04:35.659Z,21.50
2019-04-06T11:07:12.459Z,21.90
2019-04-06T11:10:00.577Z,21.60
2019-04-06T11:12:48.488Z,20.70
2019-04-06T11:15:35.041Z,20.10
2019-04-06T11:18:32.959Z,20.80
2019-04-06T11:21:19.834Z,19.70
2019-04-06T11:23:58.197Z,21.00
2019-04-06T11:26:34.158Z,21.20
2019-04-06T11:29:22.339Z,21.20
2019-04-06T11:32:10.694Z,21.00
2019-04-06T11:34:58.936Z,20.70
2019-04-06T11:37:38.921Z,21.20
2019-04-06T11:40:28.246Z,22.10
2019-04-06T11:43:08.789Z,22.20
2019-04-06T11:45:55.307Z,21.70
2019-04-06T11:48:49.033Z,21.30
2019-04-06T11:51:42.282Z,21.00
2019-04-06T11:54:22.160Z,22.10
2019-04-06T11:57:04.775Z,21.60
2019-04-06T11:59:51.298Z,22.70
2019-04-06T12:02:36.241Z,23.10
2019-04-06T12:05:12.402Z,22.60
2019-04-06T12:08:12.517Z,23.20
2019-04-06T12:11:06.798Z,22.40
2019-04-06T12:13:47.566Z,22.40
2019-04-06T12:16:28.874Z,22.90
2019-04-06T12:19:05.119Z,22.00
2019-04-06T12:21:58.598Z,20.30
2019-04-06T12:24:45.558Z,20.50
2019-04-06T12:27:39.539Z,20.50
2019-04-06T12:30:19.236Z,20.40
2019-04-06T12:33:02.753Z,19.90
2019-04-06T12:35:50.820Z,19.90
2019-04-06T12:38:37.258Z,19.70
2019-04-06T12:41:37.237Z,19.20
2019-04-06T12:44:34.239Z,18.50
2019-04-06T12:47:13.078Z,18.30
2019-04-06T12:49:57.571Z,18.10
2019-04-06T12:53:00.354Z,18.10
2019-04-06T12:55:49.699Z,18.20
2019-04-06T12:58:28.333Z,17.80
2019-04-06T13:01:19.038Z,17.60
2019-04-06T13:04:13.121Z,17.60
2019-04-06T13:07:14.338Z,17.60
2019-04-06T13:10:04.102Z,17.80
2019-04-06T13:12:51.953Z,17.80
2019-04-06T13:15:42.221Z,17.50
2019-04-06T13:18:36.423Z,17.30
2019-04-06T13:21:24.141Z,17.30
2019-04-06T13:24:07.544Z,17.20
2019-04-06T13:27:07.723Z,17.60
2019-04-06T13:29:54.436Z,17.10
2019-04-06T13:32:42.590Z,17.20
2019-04-06T13:35:40.077Z,17.10
2019-04-06T13:38:31.708Z,17.20
2019-04-06T13:41:09.027Z,17.00
2019-04-06T13:44:03.383Z,17.10
2019-04-06T13:46:56.362Z,16.80
2019-04-06T13:49:44.506Z,16.90
2019-04-06T13:52:27.911Z,17.10
2019-04-06T13:55:07.531Z,17.10
2019-04-06T13:57:42.185Z,17.10
2019-04-06T14:00:18.305Z,17.20
2019-04-06T14:02:59.553Z,17.10
2019-04-06T14:06:05.593Z,17.00
2019-04-06T14:08:46.688Z,17.30
2019-04-06T14:11:25.033Z,17.60
2019-04-06T14:14:16.054Z,17.60
2019-04-06T14:17:10.122Z,17.60
2019-04-06T14:19:49.389Z,17.50
2019-04-06T14:25:15.055Z,17.60
2019-04-06T14:28:01.128Z,17.60
2019-04-06T14:30:48.988Z,17.60
2019-04-06T14:33:31.039Z,17.60
2019-04-06T14:36:32.314Z,17.70
2019-04-06T14:41:57.638Z,17.40
2019-04-06T14:44:48.917Z,17.30
2019-04-06T14:47:35.584Z,17.20
2019-04-06T14:50:27.406Z,17.50
2019-04-06T14:53:33.673Z,17.80
2019-04-06T14:56:36.513Z,17.80
2019-04-06T14:59:23.480Z,18.00
2019-04-06T15:02:06.048Z,17.70
2019-04-06T15:04:52.967Z,18.00
2019-04-06T15:07:42.818Z,18.10
2019-04-06T15:10:28.973Z,18.50
2019-04-06T15:13:08.302Z,18.80
2019-04-06T15:15:55.391Z,18.50
2019-04-06T15:18:42.161Z,18.70
2019-04-06T15:21:28.688Z,18.40
2019-04-06T15:24:14.430Z,18.40
2019-04-06T15:27:11.511Z,18.50
2019-04-06T15:29:53.096Z,18.40
2019-04-06T15:32:43.862Z,18.50
2019-04-06T15:35:27.254Z,18.30
2019-04-06T15:38:01.466Z,17.90
2019-04-06T15:40:47.994Z,18.00
2019-04-06T15:43:34.234Z,18.00
2019-04-06T15:46:26.796Z,18.10
2019-04-06T15:49:17.101Z,18.10
2019-04-06T15:52:10.694Z,17.90
2019-04-06T15:54:45.875Z,17.80
2019-04-06T15:57:19.393Z,18.00
2019-04-06T15:59:54.500Z,17.80
2019-04-06T16:02:33.033Z,17.80
2019-04-06T16:05:17.642Z,17.80
2019-04-06T16:08:12.185Z,17.90
2019-04-06T16:11:04.662Z,17.50
2019-04-06T16:13:42.693Z,17.70
2019-04-06T16:16:18.186Z,17.50
2019-04-06T16:18:59.684Z,17.50
2019-04-06T16:22:02.497Z,17.20
2019-04-06T16:25:04.308Z,17.30
2019-04-06T16:27:50.721Z,17.40
2019-04-06T16:30:39.246Z,17.30
2019-04-06T16:33:13.416Z,17.10
2019-04-06T16:36:00.933Z,17.30
2019-04-06T16:38:42.202Z,17.40
2019-04-06T16:41:30.075Z,17.30
2019-04-06T16:44:13.354Z,17.20
2019-04-06T16:47:10.418Z,17.30
2019-04-06T16:50:01.725Z,16.90
2019-04-06T16:52:57.834Z,16.80
2019-04-06T16:55:45.863Z,16.70
2019-04-06T16:58:28.711Z,16.80
2019-04-06T17:01:19.666Z,16.90
2019-04-06T17:04:01.216Z,16.90
2019-04-06T17:06:41.137Z,16.80
2019-04-06T17:09:20.702Z,16.90
2019-04-06T17:12:09.871Z,16.90
2019-04-06T17:15:05.187Z,16.80
2019-04-06T17:17:53.520Z,16.80
2019-04-06T17:20:40.186Z,16.70
2019-04-06T17:23:30.921Z,16.40
2019-04-06T17:26:26.100Z,16.30
2019-04-06T17:29:18.947Z,16.20
2019-04-06T17:31:52.648Z,16.00
2019-04-06T17:34:30.409Z,15.90
2019-04-06T17:37:20.232Z,15.70
2019-04-06T17:40:03.094Z,15.50
2019-04-06T17:42:39.056Z,15.30
2019-04-06T17:45:26.586Z,15.10
2019-04-06T17:48:07.516Z,15.00
2019-04-06T17:50:54.538Z,14.90
2019-04-06T17:53:41.482Z,14.80
2019-04-06T17:56:29.502Z,14.70
2019-04-06T17:59:16.920Z,14.70
2019-04-06T18:02:04.257Z,14.50
2019-04-06T18:04:52.054Z,14.40
2019-04-06T18:08:09.815Z,14.30
2019-04-06T18:11:00.171Z,14.20
2019-04-06T18:13:54.021Z,14.10
2019-04-06T18:16:25.642Z,13.90
2019-04-06T18:18:54.425Z,13.80
2019-04-06T18:21:23.598Z,13.80
2019-04-06T18:23:53.041Z,13.80
2019-04-06T18:26:21.960Z,13.70
2019-04-06T18:28:50.944Z,13.70
2019-04-06T18:31:48.320Z,13.60
2019-04-06T18:34:17.674Z,13.50
2019-04-06T18:37:09.024Z,13.40
2019-04-06T18:39:38.224Z,13.40
2019-04-06T18:42:07.460Z,13.30
2019-04-06T18:44:36.391Z,13.20
2019-04-06T18:47:05.342Z,13.10
2019-04-06T18:49:34.161Z,13.10
2019-04-06T18:52:02.955Z,12.90
2019-04-06T18:54:31.815Z,13.00
2019-04-06T18:57:00.644Z,13.00
2019-04-06T18:59:29.456Z,13.00
2019-04-06T19:01:58.860Z,12.90
2019-04-06T19:04:28.073Z,12.90
2019-04-06T19:06:57.339Z,12.80
2019-04-06T19:09:26.194Z,12.90
2019-04-06T19:11:57.071Z,12.80
2019-04-06T19:14:25.909Z,12.80
2019-04-06T19:16:54.904Z,12.70
2019-04-06T19:19:23.710Z,12.60
2019-04-06T19:21:52.480Z,12.60
2019-04-06T19:24:21.393Z,12.60
2019-04-06T19:26:50.384Z,12.50
2019-04-06T19:29:21.664Z,12.40
2019-04-06T19:31:51.556Z,12.30
2019-04-06T19:34:20.679Z,12.20
2019-04-06T19:36:50.978Z,12.30
2019-04-06T19:39:20.810Z,12.30
2019-04-06T19:41:49.919Z,12.20
2019-04-06T19:44:18.754Z,12.10
2019-04-06T19:46:47.874Z,12.00
2019-04-06T19:49:16.722Z,11.90
2019-04-06T19:51:45.509Z,11.90
2019-04-06T19:54:14.300Z,11.90
2019-04-06T19:56:43.066Z,11.90
2019-04-06T19:59:13.582Z,11.90
2019-04-06T20:01:42.679Z,11.80
2019-04-06T20:04:11.613Z,11.80
2019-04-06T20:06:40.399Z,11.80
2019-04-06T20:09:09.725Z,11.90
2019-04-06T20:11:38.489Z,11.80
2019-04-06T20:14:07.317Z,11.80
2019-04-06T20:16:36.082Z,11.60
2019-04-06T20:19:05.186Z,11.50
2019-04-06T20:21:34.127Z,11.60
2019-04-06T20:24:04.022Z,11.80
2019-04-06T20:26:33.156Z,11.90
2019-04-06T20:29:02.328Z,11.90
2019-04-06T20:31:31.541Z,12.00
2019-04-06T20:34:01.856Z,12.00
2019-04-06T20:36:30.698Z,12.00
2019-04-06T20:38:59.547Z,12.10
2019-04-06T20:41:28.412Z,12.00
2019-04-06T20:43:57.200Z,12.10
2019-04-06T20:46:25.976Z,12.00
2019-04-06T20:48:54.758Z,12.10
2019-04-06T20:51:31.652Z,12.10
2019-04-06T20:54:46.445Z,12.10
2019-04-06T20:57:11.215Z,12.20
2019-04-06T20:59:40.436Z,12.10
2019-04-06T21:02:09.518Z,12.20
2019-04-06T21:04:38.551Z,12.20
2019-04-06T21:07:07.798Z,12.10
2019-04-06T21:09:37.414Z,12.20
2019-04-06T21:14:35.043Z,12.20
2019-04-06T21:17:04.492Z,12.20
2019-04-06T21:19:33.835Z,12.20
2019-04-06T21:22:02.785Z,12.10
2019-04-06T21:24:31.744Z,12.20
2019-04-06T21:27:00.615Z,12.20
2019-04-06T21:29:29.375Z,12.10
2019-04-06T21:31:58.535Z,12.10
2019-04-06T21:34:28.042Z,12.10
2019-04-06T21:36:57.508Z,12.10
2019-04-06T21:39:26.893Z,12.00
2019-04-06T21:41:56.507Z,12.00
2019-04-06T21:44:25.591Z,12.00
2019-04-06T21:46:54.766Z,12.00
2019-04-06T21:49:24.138Z,12.00
2019-04-06T21:51:53.034Z,12.10
2019-04-06T21:54:24.225Z,12.20
2019-04-06T21:56:54.477Z,12.10
2019-04-06T21:59:24.499Z,12.20
2019-04-06T22:01:53.648Z,12.10
2019-04-06T22:04:26.241Z,12.20
2019-04-06T22:06:53.154Z,12.00
2019-04-06T22:09:22.250Z,11.80
2019-04-06T22:11:51.557Z,11.80
2019-04-06T22:14:20.360Z,11.80
2019-04-06T22:16:49.379Z,11.80
2019-04-06T22:19:18.152Z,11.80
2019-04-06T22:21:47.346Z,11.70
2019-04-06T22:24:17.115Z,11.70
2019-04-06T22:26:46.346Z,11.70
2019-04-06T22:29:15.186Z,11.60
2019-04-06T22:31:43.962Z,11.60
2019-04-06T22:34:12.734Z,11.70
2019-04-06T22:36:42.460Z,11.70
2019-04-06T22:39:11.417Z,11.70
2019-04-06T22:41:40.544Z,11.60
2019-04-06T22:44:11.083Z,11.60
2019-04-06T22:46:40.738Z,11.50
2019-04-06T22:49:09.639Z,11.50
2019-04-06T22:51:38.957Z,11.40
2019-04-06T22:54:08.112Z,11.40
2019-04-06T22:56:37.403Z,11.40
2019-04-06T22:59:06.469Z,11.30
2019-04-06T23:01:36.827Z,11.20
2019-04-06T23:04:25.961Z,11.10
2019-04-06T23:07:14.110Z,11.00
2019-04-06T23:09:43.049Z,10.90
2019-04-06T23:12:12.905Z,10.70
2019-04-06T23:14:42.110Z,10.50
2019-04-06T23:17:11.227Z,10.50
2019-04-06T23:19:40.422Z,10.50
2019-04-06T23:22:09.257Z,10.40
2019-04-06T23:24:38.604Z,10.40
2019-04-06T23:27:07.822Z,10.30
2019-04-06T23:29:37.266Z,10.40
2019-04-06T23:32:08.101Z,10.30
2019-04-06T23:34:37.530Z,10.30
2019-04-06T23:37:06.380Z,10.20
2019-04-06T23:39:35.169Z,10.20
2019-04-06T23:42:04.604Z,10.30
2019-04-06T23:44:33.878Z,10.20
2019-04-06T23:47:03.226Z,10.20
2019-04-06T23:49:32.719Z,10.10
2019-04-06T23:52:01.603Z,10.10
2019-04-06T23:54:30.384Z,10.10
2019-04-06T23:56:59.301Z,10.00
2019-04-06T23:59:28.127Z,10.00
